sensor_id;sensor_type;location;lat;lon;timestamp;P1;durP1;ratioP1;P2;durP2;ratioP2
19189;SDS011;9727;50.200;19.038;2022-11-20T00:01:07;117.30;;;45.97;;
19189;SDS011;9727;50.200;19.038;2022-11-20T00:03:44;96.40;;;43.23;;
19189;SDS011;9727;50.200;19.038;2022-11-20T00:06:19;99.00;;;42.77;;
19189;SDS011;9727;50.200;19.038;2022-11-20T00:08:46;84.97;;;40.20;;
19189;SDS011;9727;50.200;19.038;2022-11-20T00:11:17;83.27;;;38.40;;
19189;SDS011;9727;50.200;19.038;2022-11-20T00:13:44;83.83;;;39.17;;
19189;SDS011;9727;50.200;19.038;2022-11-20T00:16:12;93.60;;;42.93;;
19189;SDS011;9727;50.200;19.038;2022-11-20T00:18:38;98.60;;;44.27;;
19189;SDS011;9727;50.200;19.038;2022-11-20T00:21:07;95.30;;;44.00;;
19189;SDS011;9727;50.200;19.038;2022-11-20T00:23:35;98.80;;;43.17;;
19189;SDS011;9727;50.200;19.038;2022-11-20T00:26:15;95.67;;;44.17;;
19189;SDS011;9727;50.200;19.038;2022-11-20T00:28:43;89.63;;;40.20;;
19189;SDS011;9727;50.200;19.038;2022-11-20T00:31:10;81.33;;;37.93;;
19189;SDS011;9727;50.200;19.038;2022-11-20T00:33:51;80.23;;;38.33;;
19189;SDS011;9727;50.200;19.038;2022-11-20T00:36:18;96.53;;;41.97;;
19189;SDS011;9727;50.200;19.038;2022-11-20T00:38:45;100.70;;;44.67;;
19189;SDS011;9727;50.200;19.038;2022-11-20T00:41:13;97.70;;;46.30;;
19189;SDS011;9727;50.200;19.038;2022-11-20T00:43:39;99.50;;;44.93;;
19189;SDS011;9727;50.200;19.038;2022-11-20T00:46:13;100.27;;;45.43;;
19189;SDS011;9727;50.200;19.038;2022-11-20T00:48:41;103.00;;;46.60;;
19189;SDS011;9727;50.200;19.038;2022-11-20T00:51:08;104.20;;;46.10;;
19189;SDS011;9727;50.200;19.038;2022-11-20T00:53:35;108.63;;;48.47;;
19189;SDS011;9727;50.200;19.038;2022-11-20T00:56:02;105.57;;;45.93;;
19189;SDS011;9727;50.200;19.038;2022-11-20T00:58:30;102.47;;;45.07;;
19189;SDS011;9727;50.200;19.038;2022-11-20T01:00:59;107.73;;;47.33;;
19189;SDS011;9727;50.200;19.038;2022-11-20T01:03:27;107.43;;;48.80;;
19189;SDS011;9727;50.200;19.038;2022-11-20T01:05:59;108.20;;;48.27;;
19189;SDS011;9727;50.200;19.038;2022-11-20T01:08:25;106.50;;;48.67;;
19189;SDS011;9727;50.200;19.038;2022-11-20T01:10:52;125.57;;;52.83;;
19189;SDS011;9727;50.200;19.038;2022-11-20T01:13:18;135.17;;;56.43;;
19189;SDS011;9727;50.200;19.038;2022-11-20T01:16:03;139.83;;;58.63;;
19189;SDS011;9727;50.200;19.038;2022-11-20T01:18:31;144.23;;;59.57;;
19189;SDS011;9727;50.200;19.038;2022-11-20T01:21:00;144.73;;;60.53;;
19189;SDS011;9727;50.200;19.038;2022-11-20T01:23:28;143.90;;;60.90;;
19189;SDS011;9727;50.200;19.038;2022-11-20T01:25:55;136.67;;;59.33;;
19189;SDS011;9727;50.200;19.038;2022-11-20T01:28:22;131.33;;;57.50;;
19189;SDS011;9727;50.200;19.038;2022-11-20T01:30:49;134.40;;;56.40;;
19189;SDS011;9727;50.200;19.038;2022-11-20T01:33:15;135.80;;;55.70;;
19189;SDS011;9727;50.200;19.038;2022-11-20T01:35:43;137.53;;;56.97;;
19189;SDS011;9727;50.200;19.038;2022-11-20T01:38:09;130.57;;;54.30;;
19189;SDS011;9727;50.200;19.038;2022-11-20T01:40:36;126.23;;;53.70;;
19189;SDS011;9727;50.200;19.038;2022-11-20T01:43:09;128.73;;;55.27;;
19189;SDS011;9727;50.200;19.038;2022-11-20T01:46:00;114.43;;;54.10;;
19189;SDS011;9727;50.200;19.038;2022-11-20T01:48:28;125.70;;;54.70;;
19189;SDS011;9727;50.200;19.038;2022-11-20T01:50:57;128.77;;;53.87;;
19189;SDS011;9727;50.200;19.038;2022-11-20T01:53:25;128.50;;;53.73;;
19189;SDS011;9727;50.200;19.038;2022-11-20T01:55:55;111.23;;;49.57;;
19189;SDS011;9727;50.200;19.038;2022-11-20T01:58:25;114.07;;;49.10;;
19189;SDS011;9727;50.200;19.038;2022-11-20T02:00:52;119.13;;;50.53;;
19189;SDS011;9727;50.200;19.038;2022-11-20T02:03:19;123.63;;;52.90;;
19189;SDS011;9727;50.200;19.038;2022-11-20T02:05:46;110.27;;;50.00;;
19189;SDS011;9727;50.200;19.038;2022-11-20T02:08:17;121.57;;;54.00;;
19189;SDS011;9727;50.200;19.038;2022-11-20T02:10:43;127.50;;;56.27;;
19189;SDS011;9727;50.200;19.038;2022-11-20T02:13:10;122.43;;;54.97;;
19189;SDS011;9727;50.200;19.038;2022-11-20T02:15:53;131.57;;;57.27;;
19189;SDS011;9727;50.200;19.038;2022-11-20T02:18:20;128.73;;;54.83;;
19189;SDS011;9727;50.200;19.038;2022-11-20T02:20:48;131.47;;;56.07;;
19189;SDS011;9727;50.200;19.038;2022-11-20T02:23:26;135.60;;;56.10;;
19189;SDS011;9727;50.200;19.038;2022-11-20T02:25:56;142.30;;;57.90;;
19189;SDS011;9727;50.200;19.038;2022-11-20T02:28:24;161.57;;;63.07;;
19189;SDS011;9727;50.200;19.038;2022-11-20T02:30:50;164.77;;;64.77;;
19189;SDS011;9727;50.200;19.038;2022-11-20T02:33:17;169.93;;;66.77;;
19189;SDS011;9727;50.200;19.038;2022-11-20T02:35:52;157.47;;;63.63;;
19189;SDS011;9727;50.200;19.038;2022-11-20T02:38:18;142.73;;;55.97;;
19189;SDS011;9727;50.200;19.038;2022-11-20T02:40:45;140.57;;;58.60;;
19189;SDS011;9727;50.200;19.038;2022-11-20T02:43:19;135.73;;;56.20;;
19189;SDS011;9727;50.200;19.038;2022-11-20T02:45:45;130.93;;;55.97;;
19189;SDS011;9727;50.200;19.038;2022-11-20T02:48:12;128.27;;;54.30;;
19189;SDS011;9727;50.200;19.038;2022-11-20T02:50:38;130.63;;;53.90;;
19189;SDS011;9727;50.200;19.038;2022-11-20T02:53:06;118.30;;;52.00;;
19189;SDS011;9727;50.200;19.038;2022-11-20T02:55:33;121.60;;;52.20;;
19189;SDS011;9727;50.200;19.038;2022-11-20T02:57:59;115.90;;;51.97;;
19189;SDS011;9727;50.200;19.038;2022-11-20T03:00:27;120.50;;;50.50;;
19189;SDS011;9727;50.200;19.038;2022-11-20T03:02:54;110.27;;;47.93;;
19189;SDS011;9727;50.200;19.038;2022-11-20T03:05:20;102.00;;;47.07;;
19189;SDS011;9727;50.200;19.038;2022-11-20T03:07:47;100.03;;;45.50;;
19189;SDS011;9727;50.200;19.038;2022-11-20T03:10:16;103.20;;;46.07;;
19189;SDS011;9727;50.200;19.038;2022-11-20T03:12:42;108.30;;;49.17;;
19189;SDS011;9727;50.200;19.038;2022-11-20T03:15:09;99.73;;;45.53;;
19189;SDS011;9727;50.200;19.038;2022-11-20T03:17:37;97.83;;;44.57;;
19189;SDS011;9727;50.200;19.038;2022-11-20T03:20:04;93.97;;;45.83;;
19189;SDS011;9727;50.200;19.038;2022-11-20T03:22:31;98.83;;;44.97;;
19189;SDS011;9727;50.200;19.038;2022-11-20T03:24:58;94.03;;;43.40;;
19189;SDS011;9727;50.200;19.038;2022-11-20T03:27:24;94.47;;;44.13;;
19189;SDS011;9727;50.200;19.038;2022-11-20T03:29:52;99.57;;;46.00;;
19189;SDS011;9727;50.200;19.038;2022-11-20T03:32:18;98.93;;;45.83;;
19189;SDS011;9727;50.200;19.038;2022-11-20T03:34:46;100.00;;;44.67;;
19189;SDS011;9727;50.200;19.038;2022-11-20T03:37:12;94.60;;;43.10;;
19189;SDS011;9727;50.200;19.038;2022-11-20T03:39:39;95.73;;;42.43;;
19189;SDS011;9727;50.200;19.038;2022-11-20T03:42:08;93.50;;;42.33;;
19189;SDS011;9727;50.200;19.038;2022-11-20T03:44:54;90.00;;;42.67;;
19189;SDS011;9727;50.200;19.038;2022-11-20T03:47:21;91.70;;;42.47;;
19189;SDS011;9727;50.200;19.038;2022-11-20T03:49:52;95.30;;;44.57;;
19189;SDS011;9727;50.200;19.038;2022-11-20T03:52:18;103.23;;;44.40;;
19189;SDS011;9727;50.200;19.038;2022-11-20T03:54:45;107.03;;;47.00;;
19189;SDS011;9727;50.200;19.038;2022-11-20T03:57:14;90.87;;;44.53;;
19189;SDS011;9727;50.200;19.038;2022-11-20T03:59:43;96.33;;;45.07;;
19189;SDS011;9727;50.200;19.038;2022-11-20T04:02:10;96.07;;;44.17;;
19189;SDS011;9727;50.200;19.038;2022-11-20T04:04:36;88.40;;;41.90;;
19189;SDS011;9727;50.200;19.038;2022-11-20T04:07:04;95.93;;;42.83;;
19189;SDS011;9727;50.200;19.038;2022-11-20T04:09:31;91.43;;;42.07;;
19189;SDS011;9727;50.200;19.038;2022-11-20T04:11:57;91.27;;;42.20;;
19189;SDS011;9727;50.200;19.038;2022-11-20T04:14:24;88.43;;;40.90;;
19189;SDS011;9727;50.200;19.038;2022-11-20T04:16:50;105.90;;;43.33;;
19189;SDS011;9727;50.200;19.038;2022-11-20T04:19:17;94.60;;;43.13;;
19189;SDS011;9727;50.200;19.038;2022-11-20T04:21:43;93.03;;;42.50;;
19189;SDS011;9727;50.200;19.038;2022-11-20T04:24:11;91.73;;;42.63;;
19189;SDS011;9727;50.200;19.038;2022-11-20T04:26:38;94.07;;;41.37;;
19189;SDS011;9727;50.200;19.038;2022-11-20T04:29:05;97.77;;;41.83;;
19189;SDS011;9727;50.200;19.038;2022-11-20T04:31:32;95.90;;;41.60;;
19189;SDS011;9727;50.200;19.038;2022-11-20T04:33:59;87.93;;;39.73;;
19189;SDS011;9727;50.200;19.038;2022-11-20T04:36:26;88.80;;;40.07;;
19189;SDS011;9727;50.200;19.038;2022-11-20T04:38:53;91.17;;;40.57;;
19189;SDS011;9727;50.200;19.038;2022-11-20T04:41:21;92.23;;;40.77;;
19189;SDS011;9727;50.200;19.038;2022-11-20T04:43:49;97.47;;;42.33;;
19189;SDS011;9727;50.200;19.038;2022-11-20T04:46:16;91.63;;;41.00;;
19189;SDS011;9727;50.200;19.038;2022-11-20T04:48:42;89.93;;;39.63;;
19189;SDS011;9727;50.200;19.038;2022-11-20T04:51:09;86.20;;;39.30;;
19189;SDS011;9727;50.200;19.038;2022-11-20T04:53:35;92.27;;;41.23;;
19189;SDS011;9727;50.200;19.038;2022-11-20T04:56:02;89.63;;;39.67;;
19189;SDS011;9727;50.200;19.038;2022-11-20T04:58:31;97.23;;;42.07;;
19189;SDS011;9727;50.200;19.038;2022-11-20T05:01:01;89.53;;;40.90;;
19189;SDS011;9727;50.200;19.038;2022-11-20T05:03:28;93.57;;;40.53;;
19189;SDS011;9727;50.200;19.038;2022-11-20T05:05:55;91.07;;;39.07;;
19189;SDS011;9727;50.200;19.038;2022-11-20T05:08:22;89.90;;;40.83;;
19189;SDS011;9727;50.200;19.038;2022-11-20T05:10:51;86.83;;;40.83;;
19189;SDS011;9727;50.200;19.038;2022-11-20T05:13:18;92.60;;;42.93;;
19189;SDS011;9727;50.200;19.038;2022-11-20T05:15:46;113.20;;;46.83;;
19189;SDS011;9727;50.200;19.038;2022-11-20T05:18:13;112.17;;;46.60;;
19189;SDS011;9727;50.200;19.038;2022-11-20T05:20:39;104.10;;;45.43;;
19189;SDS011;9727;50.200;19.038;2022-11-20T05:23:19;118.17;;;46.33;;
19189;SDS011;9727;50.200;19.038;2022-11-20T05:25:46;116.00;;;47.13;;
19189;SDS011;9727;50.200;19.038;2022-11-20T05:28:12;108.87;;;48.00;;
19189;SDS011;9727;50.200;19.038;2022-11-20T05:30:39;106.90;;;46.43;;
19189;SDS011;9727;50.200;19.038;2022-11-20T05:33:10;103.97;;;45.47;;
19189;SDS011;9727;50.200;19.038;2022-11-20T05:35:37;111.07;;;43.97;;
19189;SDS011;9727;50.200;19.038;2022-11-20T05:38:03;97.33;;;42.53;;
19189;SDS011;9727;50.200;19.038;2022-11-20T05:40:30;97.53;;;42.43;;
19189;SDS011;9727;50.200;19.038;2022-11-20T05:42:56;91.47;;;39.37;;
19189;SDS011;9727;50.200;19.038;2022-11-20T05:45:23;102.90;;;42.43;;
19189;SDS011;9727;50.200;19.038;2022-11-20T05:47:49;101.97;;;43.00;;
19189;SDS011;9727;50.200;19.038;2022-11-20T05:50:18;94.83;;;42.57;;
19189;SDS011;9727;50.200;19.038;2022-11-20T05:52:44;98.73;;;41.27;;
19189;SDS011;9727;50.200;19.038;2022-11-20T05:55:11;97.57;;;41.30;;
19189;SDS011;9727;50.200;19.038;2022-11-20T05:57:46;94.97;;;39.97;;
19189;SDS011;9727;50.200;19.038;2022-11-20T06:00:13;86.23;;;36.20;;
19189;SDS011;9727;50.200;19.038;2022-11-20T06:02:49;77.20;;;33.90;;
19189;SDS011;9727;50.200;19.038;2022-11-20T06:05:25;81.20;;;36.17;;
19189;SDS011;9727;50.200;19.038;2022-11-20T06:07:52;77.73;;;35.23;;
19189;SDS011;9727;50.200;19.038;2022-11-20T06:10:19;86.67;;;36.63;;
19189;SDS011;9727;50.200;19.038;2022-11-20T06:12:58;89.50;;;38.43;;
19189;SDS011;9727;50.200;19.038;2022-11-20T06:15:24;87.17;;;37.33;;
19189;SDS011;9727;50.200;19.038;2022-11-20T06:17:51;93.10;;;38.70;;
19189;SDS011;9727;50.200;19.038;2022-11-20T06:20:18;87.67;;;38.23;;
19189;SDS011;9727;50.200;19.038;2022-11-20T06:22:46;90.73;;;38.77;;
19189;SDS011;9727;50.200;19.038;2022-11-20T06:25:13;88.13;;;37.97;;
19189;SDS011;9727;50.200;19.038;2022-11-20T06:27:53;80.93;;;37.60;;
19189;SDS011;9727;50.200;19.038;2022-11-20T06:30:19;82.13;;;37.10;;
19189;SDS011;9727;50.200;19.038;2022-11-20T06:32:46;89.70;;;38.93;;
19189;SDS011;9727;50.200;19.038;2022-11-20T06:35:12;81.97;;;38.10;;
19189;SDS011;9727;50.200;19.038;2022-11-20T06:37:39;86.73;;;39.53;;
19189;SDS011;9727;50.200;19.038;2022-11-20T06:40:10;91.50;;;39.13;;
19189;SDS011;9727;50.200;19.038;2022-11-20T06:42:37;86.80;;;37.63;;
19189;SDS011;9727;50.200;19.038;2022-11-20T06:45:03;88.03;;;38.53;;
19189;SDS011;9727;50.200;19.038;2022-11-20T06:47:30;88.40;;;39.93;;
19189;SDS011;9727;50.200;19.038;2022-11-20T06:49:57;95.07;;;40.67;;
19189;SDS011;9727;50.200;19.038;2022-11-20T06:52:23;105.23;;;43.83;;
19189;SDS011;9727;50.200;19.038;2022-11-20T06:54:50;116.77;;;49.07;;
19189;SDS011;9727;50.200;19.038;2022-11-20T06:57:18;121.60;;;50.80;;
19189;SDS011;9727;50.200;19.038;2022-11-20T06:59:45;113.97;;;49.70;;
19189;SDS011;9727;50.200;19.038;2022-11-20T07:02:11;123.03;;;54.10;;
19189;SDS011;9727;50.200;19.038;2022-11-20T07:04:38;123.63;;;53.90;;
19189;SDS011;9727;50.200;19.038;2022-11-20T07:07:06;117.13;;;52.37;;
19189;SDS011;9727;50.200;19.038;2022-11-20T07:09:33;119.40;;;51.67;;
19189;SDS011;9727;50.200;19.038;2022-11-20T07:12:00;116.33;;;54.27;;
19189;SDS011;9727;50.200;19.038;2022-11-20T07:14:27;153.70;;;60.03;;
19189;SDS011;9727;50.200;19.038;2022-11-20T07:16:54;153.53;;;58.83;;
19189;SDS011;9727;50.200;19.038;2022-11-20T07:19:21;200.10;;;68.07;;
19189;SDS011;9727;50.200;19.038;2022-11-20T07:21:47;220.50;;;73.70;;
19189;SDS011;9727;50.200;19.038;2022-11-20T07:24:15;177.73;;;65.50;;
19189;SDS011;9727;50.200;19.038;2022-11-20T07:26:42;170.63;;;64.10;;
19189;SDS011;9727;50.200;19.038;2022-11-20T07:29:10;132.37;;;51.60;;
19189;SDS011;9727;50.200;19.038;2022-11-20T07:31:38;122.07;;;47.57;;
19189;SDS011;9727;50.200;19.038;2022-11-20T07:34:05;122.27;;;46.07;;
19189;SDS011;9727;50.200;19.038;2022-11-20T07:36:31;95.77;;;41.93;;
19189;SDS011;9727;50.200;19.038;2022-11-20T07:38:58;93.57;;;39.40;;
19189;SDS011;9727;50.200;19.038;2022-11-20T07:41:25;89.17;;;41.03;;
19189;SDS011;9727;50.200;19.038;2022-11-20T07:43:55;98.47;;;43.27;;
19189;SDS011;9727;50.200;19.038;2022-11-20T07:46:24;95.13;;;44.73;;
19189;SDS011;9727;50.200;19.038;2022-11-20T07:48:52;115.17;;;50.37;;
19189;SDS011;9727;50.200;19.038;2022-11-20T07:51:18;121.70;;;50.80;;
19189;SDS011;9727;50.200;19.038;2022-11-20T07:53:45;112.10;;;48.97;;
19189;SDS011;9727;50.200;19.038;2022-11-20T07:56:11;111.23;;;48.17;;
19189;SDS011;9727;50.200;19.038;2022-11-20T07:58:39;104.33;;;48.50;;
19189;SDS011;9727;50.200;19.038;2022-11-20T08:01:08;113.93;;;49.27;;
19189;SDS011;9727;50.200;19.038;2022-11-20T08:03:35;103.93;;;47.33;;
19189;SDS011;9727;50.200;19.038;2022-11-20T08:06:15;106.97;;;49.17;;
19189;SDS011;9727;50.200;19.038;2022-11-20T08:08:49;113.93;;;50.57;;
19189;SDS011;9727;50.200;19.038;2022-11-20T08:11:16;104.60;;;48.90;;
19189;SDS011;9727;50.200;19.038;2022-11-20T08:14:00;100.13;;;47.27;;
19189;SDS011;9727;50.200;19.038;2022-11-20T08:16:39;111.57;;;49.30;;
19189;SDS011;9727;50.200;19.038;2022-11-20T08:19:20;116.40;;;50.60;;
19189;SDS011;9727;50.200;19.038;2022-11-20T08:22:02;111.67;;;51.93;;
19189;SDS011;9727;50.200;19.038;2022-11-20T08:24:29;109.77;;;50.60;;
19189;SDS011;9727;50.200;19.038;2022-11-20T08:26:57;105.33;;;47.50;;
19189;SDS011;9727;50.200;19.038;2022-11-20T08:29:23;102.63;;;48.17;;
19189;SDS011;9727;50.200;19.038;2022-11-20T08:31:51;96.20;;;46.23;;
19189;SDS011;9727;50.200;19.038;2022-11-20T08:34:18;87.73;;;43.07;;
19189;SDS011;9727;50.200;19.038;2022-11-20T08:36:44;104.93;;;46.73;;
19189;SDS011;9727;50.200;19.038;2022-11-20T08:39:12;92.63;;;45.33;;
19189;SDS011;9727;50.200;19.038;2022-11-20T08:41:51;91.13;;;45.57;;
19189;SDS011;9727;50.200;19.038;2022-11-20T08:44:17;105.27;;;47.60;;
19189;SDS011;9727;50.200;19.038;2022-11-20T08:46:44;102.20;;;44.93;;
19189;SDS011;9727;50.200;19.038;2022-11-20T08:49:11;96.03;;;44.93;;
19189;SDS011;9727;50.200;19.038;2022-11-20T08:51:41;91.63;;;45.87;;
19189;SDS011;9727;50.200;19.038;2022-11-20T08:54:21;95.60;;;44.50;;
19189;SDS011;9727;50.200;19.038;2022-11-20T08:56:49;93.07;;;45.00;;
19189;SDS011;9727;50.200;19.038;2022-11-20T08:59:15;88.63;;;43.63;;
19189;SDS011;9727;50.200;19.038;2022-11-20T09:01:42;96.77;;;46.37;;
19189;SDS011;9727;50.200;19.038;2022-11-20T09:04:08;89.70;;;44.27;;
19189;SDS011;9727;50.200;19.038;2022-11-20T09:06:36;90.10;;;41.63;;
19189;SDS011;9727;50.200;19.038;2022-11-20T09:09:03;85.00;;;41.13;;
19189;SDS011;9727;50.200;19.038;2022-11-20T09:11:32;91.27;;;40.93;;
19189;SDS011;9727;50.200;19.038;2022-11-20T09:13:58;86.17;;;41.53;;
19189;SDS011;9727;50.200;19.038;2022-11-20T09:16:25;85.57;;;42.80;;
19189;SDS011;9727;50.200;19.038;2022-11-20T09:18:51;93.90;;;45.37;;
19189;SDS011;9727;50.200;19.038;2022-11-20T09:21:21;91.93;;;44.77;;
19189;SDS011;9727;50.200;19.038;2022-11-20T09:23:47;96.10;;;45.00;;
19189;SDS011;9727;50.200;19.038;2022-11-20T09:26:17;89.10;;;43.53;;
19189;SDS011;9727;50.200;19.038;2022-11-20T09:28:45;90.10;;;42.67;;
19189;SDS011;9727;50.200;19.038;2022-11-20T09:31:16;81.93;;;41.13;;
19189;SDS011;9727;50.200;19.038;2022-11-20T09:33:44;87.83;;;40.80;;
19189;SDS011;9727;50.200;19.038;2022-11-20T09:36:10;81.00;;;39.77;;
19189;SDS011;9727;50.200;19.038;2022-11-20T09:38:37;79.53;;;38.20;;
19189;SDS011;9727;50.200;19.038;2022-11-20T09:41:06;78.10;;;38.27;;
19189;SDS011;9727;50.200;19.038;2022-11-20T09:43:38;73.23;;;37.30;;
19189;SDS011;9727;50.200;19.038;2022-11-20T09:46:09;75.70;;;36.07;;
19189;SDS011;9727;50.200;19.038;2022-11-20T09:48:44;77.73;;;37.13;;
19189;SDS011;9727;50.200;19.038;2022-11-20T09:51:19;76.43;;;36.60;;
19189;SDS011;9727;50.200;19.038;2022-11-20T09:53:53;80.37;;;39.07;;
19189;SDS011;9727;50.200;19.038;2022-11-20T09:56:21;78.50;;;37.43;;
19189;SDS011;9727;50.200;19.038;2022-11-20T09:58:49;70.47;;;34.10;;
19189;SDS011;9727;50.200;19.038;2022-11-20T10:01:18;67.63;;;32.60;;
19189;SDS011;9727;50.200;19.038;2022-11-20T10:03:49;67.73;;;34.27;;
19189;SDS011;9727;50.200;19.038;2022-11-20T10:06:17;65.80;;;33.13;;
19189;SDS011;9727;50.200;19.038;2022-11-20T10:08:45;68.53;;;31.67;;
19189;SDS011;9727;50.200;19.038;2022-11-20T10:11:18;61.97;;;28.93;;
19189;SDS011;9727;50.200;19.038;2022-11-20T10:13:50;61.90;;;30.13;;
19189;SDS011;9727;50.200;19.038;2022-11-20T10:16:21;69.07;;;31.87;;
19189;SDS011;9727;50.200;19.038;2022-11-20T10:18:56;69.20;;;33.97;;
19189;SDS011;9727;50.200;19.038;2022-11-20T10:21:26;66.87;;;32.87;;
19189;SDS011;9727;50.200;19.038;2022-11-20T10:24:13;68.10;;;32.83;;
19189;SDS011;9727;50.200;19.038;2022-11-20T10:26:46;67.03;;;32.33;;
19189;SDS011;9727;50.200;19.038;2022-11-20T10:29:18;67.10;;;33.03;;
19189;SDS011;9727;50.200;19.038;2022-11-20T10:31:47;59.97;;;29.90;;
19189;SDS011;9727;50.200;19.038;2022-11-20T10:34:18;63.27;;;32.27;;
19189;SDS011;9727;50.200;19.038;2022-11-20T10:36:47;60.27;;;30.10;;
19189;SDS011;9727;50.200;19.038;2022-11-20T10:39:16;68.23;;;32.00;;
19189;SDS011;9727;50.200;19.038;2022-11-20T10:41:44;61.80;;;31.43;;
19189;SDS011;9727;50.200;19.038;2022-11-20T10:44:16;66.00;;;32.33;;
19189;SDS011;9727;50.200;19.038;2022-11-20T10:47:05;67.53;;;33.83;;
19189;SDS011;9727;50.200;19.038;2022-11-20T10:49:36;71.33;;;36.13;;
19189;SDS011;9727;50.200;19.038;2022-11-20T10:52:04;73.70;;;36.73;;
19189;SDS011;9727;50.200;19.038;2022-11-20T10:54:35;64.03;;;34.60;;
19189;SDS011;9727;50.200;19.038;2022-11-20T10:57:08;71.90;;;37.10;;
19189;SDS011;9727;50.200;19.038;2022-11-20T10:59:46;76.43;;;37.50;;
19189;SDS011;9727;50.200;19.038;2022-11-20T11:02:18;73.93;;;39.93;;
19189;SDS011;9727;50.200;19.038;2022-11-20T11:04:45;77.97;;;40.07;;
19189;SDS011;9727;50.200;19.038;2022-11-20T11:07:13;83.10;;;42.33;;
19189;SDS011;9727;50.200;19.038;2022-11-20T11:09:43;71.23;;;36.23;;
19189;SDS011;9727;50.200;19.038;2022-11-20T11:12:09;81.37;;;39.97;;
19189;SDS011;9727;50.200;19.038;2022-11-20T11:14:46;87.60;;;41.60;;
19189;SDS011;9727;50.200;19.038;2022-11-20T11:17:22;81.27;;;39.60;;
19189;SDS011;9727;50.200;19.038;2022-11-20T11:22:53;82.73;;;41.03;;
19189;SDS011;9727;50.200;19.038;2022-11-20T11:25:55;75.77;;;38.03;;
19189;SDS011;9727;50.200;19.038;2022-11-20T11:28:22;80.77;;;38.97;;
19189;SDS011;9727;50.200;19.038;2022-11-20T11:30:55;80.67;;;41.63;;
19189;SDS011;9727;50.200;19.038;2022-11-20T11:33:24;84.17;;;41.67;;
19189;SDS011;9727;50.200;19.038;2022-11-20T11:38:43;80.77;;;39.33;;
19189;SDS011;9727;50.200;19.038;2022-11-20T11:44:15;80.80;;;39.40;;
19189;SDS011;9727;50.200;19.038;2022-11-20T11:47:00;76.23;;;39.30;;
19189;SDS011;9727;50.200;19.038;2022-11-20T11:49:43;82.13;;;40.13;;
19189;SDS011;9727;50.200;19.038;2022-11-20T11:52:24;74.77;;;38.60;;
19189;SDS011;9727;50.200;19.038;2022-11-20T11:54:53;78.97;;;39.67;;
19189;SDS011;9727;50.200;19.038;2022-11-20T11:57:20;73.37;;;37.30;;
19189;SDS011;9727;50.200;19.038;2022-11-20T11:59:54;83.03;;;40.00;;
19189;SDS011;9727;50.200;19.038;2022-11-20T12:05:18;80.93;;;40.47;;
19189;SDS011;9727;50.200;19.038;2022-11-20T12:07:47;73.20;;;37.53;;
19189;SDS011;9727;50.200;19.038;2022-11-20T12:10:17;74.17;;;37.53;;
19189;SDS011;9727;50.200;19.038;2022-11-20T12:12:50;71.80;;;38.37;;
19189;SDS011;9727;50.200;19.038;2022-11-20T12:15:23;65.23;;;36.67;;
19189;SDS011;9727;50.200;19.038;2022-11-20T12:17:52;78.30;;;40.87;;
19189;SDS011;9727;50.200;19.038;2022-11-20T12:20:20;77.77;;;39.77;;
19189;SDS011;9727;50.200;19.038;2022-11-20T12:22:51;80.97;;;40.63;;
19189;SDS011;9727;50.200;19.038;2022-11-20T12:25:22;74.47;;;39.77;;
19189;SDS011;9727;50.200;19.038;2022-11-20T12:28:05;77.07;;;40.23;;
19189;SDS011;9727;50.200;19.038;2022-11-20T12:30:36;75.23;;;37.67;;
19189;SDS011;9727;50.200;19.038;2022-11-20T12:33:19;77.30;;;37.37;;
19189;SDS011;9727;50.200;19.038;2022-11-20T12:35:56;71.63;;;38.17;;
19189;SDS011;9727;50.200;19.038;2022-11-20T12:38:32;76.83;;;38.07;;
19189;SDS011;9727;50.200;19.038;2022-11-20T12:41:04;74.20;;;35.73;;
19189;SDS011;9727;50.200;19.038;2022-11-20T12:43:33;80.37;;;38.83;;
19189;SDS011;9727;50.200;19.038;2022-11-20T12:46:23;71.67;;;36.40;;
19189;SDS011;9727;50.200;19.038;2022-11-20T12:48:57;70.17;;;36.60;;
19189;SDS011;9727;50.200;19.038;2022-11-20T12:51:39;71.27;;;36.27;;
19189;SDS011;9727;50.200;19.038;2022-11-20T12:56:52;66.20;;;32.60;;
19189;SDS011;9727;50.200;19.038;2022-11-20T12:59:27;66.20;;;33.77;;
19189;SDS011;9727;50.200;19.038;2022-11-20T13:01:59;63.70;;;32.60;;
19189;SDS011;9727;50.200;19.038;2022-11-20T13:09:52;68.93;;;35.13;;
19189;SDS011;9727;50.200;19.038;2022-11-20T13:12:20;78.13;;;37.37;;
19189;SDS011;9727;50.200;19.038;2022-11-20T13:14:58;75.57;;;38.93;;
19189;SDS011;9727;50.200;19.038;2022-11-20T13:20:12;76.70;;;38.57;;
19189;SDS011;9727;50.200;19.038;2022-11-20T13:22:54;85.60;;;40.13;;
19189;SDS011;9727;50.200;19.038;2022-11-20T13:25:35;82.43;;;41.43;;
19189;SDS011;9727;50.200;19.038;2022-11-20T13:28:03;77.27;;;38.73;;
19189;SDS011;9727;50.200;19.038;2022-11-20T13:30:30;78.00;;;37.20;;
19189;SDS011;9727;50.200;19.038;2022-11-20T13:32:58;84.27;;;40.13;;
19189;SDS011;9727;50.200;19.038;2022-11-20T13:35:27;81.77;;;41.10;;
19189;SDS011;9727;50.200;19.038;2022-11-20T13:38:05;83.80;;;41.57;;
19189;SDS011;9727;50.200;19.038;2022-11-20T13:41:00;80.30;;;39.90;;
19189;SDS011;9727;50.200;19.038;2022-11-20T13:43:51;78.43;;;40.47;;
19189;SDS011;9727;50.200;19.038;2022-11-20T13:46:20;82.90;;;42.07;;
19189;SDS011;9727;50.200;19.038;2022-11-20T13:48:49;81.97;;;41.07;;
19189;SDS011;9727;50.200;19.038;2022-11-20T13:51:22;85.37;;;41.10;;
19189;SDS011;9727;50.200;19.038;2022-11-20T13:54:04;86.07;;;43.00;;
19189;SDS011;9727;50.200;19.038;2022-11-20T13:56:38;86.00;;;43.07;;
19189;SDS011;9727;50.200;19.038;2022-11-20T13:59:39;93.57;;;44.33;;
19189;SDS011;9727;50.200;19.038;2022-11-20T14:02:15;92.13;;;45.30;;
19189;SDS011;9727;50.200;19.038;2022-11-20T14:04:43;88.50;;;44.93;;
19189;SDS011;9727;50.200;19.038;2022-11-20T14:07:11;89.13;;;45.73;;
19189;SDS011;9727;50.200;19.038;2022-11-20T14:12:28;88.60;;;44.20;;
19189;SDS011;9727;50.200;19.038;2022-11-20T14:14:55;94.67;;;45.97;;
19189;SDS011;9727;50.200;19.038;2022-11-20T14:17:23;94.60;;;46.27;;
19189;SDS011;9727;50.200;19.038;2022-11-20T14:19:51;101.33;;;45.83;;
19189;SDS011;9727;50.200;19.038;2022-11-20T14:25:18;88.23;;;41.13;;
19189;SDS011;9727;50.200;19.038;2022-11-20T14:27:52;82.27;;;41.53;;
19189;SDS011;9727;50.200;19.038;2022-11-20T14:30:19;81.63;;;40.03;;
19189;SDS011;9727;50.200;19.038;2022-11-20T14:32:46;87.93;;;41.60;;
19189;SDS011;9727;50.200;19.038;2022-11-20T14:35:16;81.77;;;40.63;;
19189;SDS011;9727;50.200;19.038;2022-11-20T14:37:45;82.90;;;40.53;;
19189;SDS011;9727;50.200;19.038;2022-11-20T14:40:31;89.97;;;42.47;;
19189;SDS011;9727;50.200;19.038;2022-11-20T14:43:02;89.60;;;43.97;;
19189;SDS011;9727;50.200;19.038;2022-11-20T14:45:32;89.43;;;45.20;;
19189;SDS011;9727;50.200;19.038;2022-11-20T14:54:19;76.50;;;38.43;;
19189;SDS011;9727;50.200;19.038;2022-11-20T14:56:53;79.10;;;39.50;;
19189;SDS011;9727;50.200;19.038;2022-11-20T15:05:11;88.07;;;41.90;;
19189;SDS011;9727;50.200;19.038;2022-11-20T15:08:10;86.73;;;40.93;;
19189;SDS011;9727;50.200;19.038;2022-11-20T15:13:29;88.20;;;41.53;;
19189;SDS011;9727;50.200;19.038;2022-11-20T15:19:11;102.43;;;44.70;;
19189;SDS011;9727;50.200;19.038;2022-11-20T15:21:54;91.23;;;44.53;;